createdAt,value
2019-04-10T00:01:46.539Z,98211.04
2019-04-10T00:04:14.665Z,98213.30
2019-04-10T00:06:41.699Z,98221.56
2019-04-10T00:09:08.518Z,98219.39
2019-04-10T00:11:35.096Z,98216.78
2019-04-10T00:14:02.951Z,98207.70
2019-04-10T00:16:29.890Z,98211.20
2019-04-10T00:18:56.724Z,98217.73
2019-04-10T00:21:25.136Z,98212.98
2019-04-10T00:23:51.910Z,98210.41
2019-04-10T00:26:18.562Z,98213.02
2019-04-10T00:28:45.608Z,98201.31
2019-04-10T00:31:13.692Z,98206.09
2019-04-10T00:33:40.977Z,98216.03
2019-04-10T00:36:08.015Z,98213.03
2019-04-10T00:38:35.407Z,98218.23
2019-04-10T00:41:02.069Z,98211.33
2019-04-10T00:43:28.869Z,98214.78
2019-04-10T00:45:55.790Z,98211.33
2019-04-10T00:48:22.332Z,98216.53
2019-04-10T00:50:50.855Z,98214.41
2019-04-10T00:53:19.010Z,98212.67
2019-04-10T00:55:46.109Z,98214.85
2019-04-10T00:58:14.120Z,98216.59
2019-04-10T01:00:41.279Z,98213.96
2019-04-10T01:03:13.477Z,98219.18
2019-04-10T01:05:40.362Z,98220.50
2019-04-10T01:08:07.047Z,98223.50
2019-04-10T01:10:34.578Z,98216.16
2019-04-10T01:13:01.406Z,98220.48
2019-04-10T01:15:28.821Z,98221.38
2019-04-10T01:17:55.544Z,98216.60
2019-04-10T01:20:23.806Z,98217.91
2019-04-10T01:22:51.896Z,98214.89
2019-04-10T01:25:18.733Z,98215.32
2019-04-10T01:27:45.510Z,98220.52
2019-04-10T01:30:12.527Z,98225.27
2019-04-10T01:32:39.759Z,98221.39
2019-04-10T01:35:07.780Z,98226.16
2019-04-10T01:37:46.642Z,98227.90
2019-04-10T01:40:04.674Z,98229.63
2019-04-10T01:42:32.396Z,98217.50
2019-04-10T01:45:00.757Z,98221.81
2019-04-10T01:47:27.485Z,98226.17
2019-04-10T01:49:54.150Z,98228.74
2019-04-10T01:52:20.918Z,98225.30
2019-04-10T01:54:47.882Z,98226.16
2019-04-10T01:57:14.714Z,98227.89
2019-04-10T01:59:42.446Z,98230.02
2019-04-10T02:02:16.898Z,98226.98
2019-04-10T02:04:43.835Z,98227.80
2019-04-10T02:07:10.753Z,98233.83
2019-04-10T02:09:37.396Z,98231.23
2019-04-10T02:12:04.167Z,98235.10
2019-04-10T02:14:32.102Z,98228.62
2019-04-10T02:16:59.094Z,98238.10
2019-04-10T02:19:26.594Z,98235.05
2019-04-10T02:21:53.235Z,98238.91
2019-04-10T02:24:19.970Z,98238.90
2019-04-10T02:26:46.668Z,98238.83
2019-04-10T02:29:13.469Z,98240.47
2019-04-10T02:31:40.494Z,98241.77
2019-04-10T02:34:09.066Z,98236.14
2019-04-10T02:36:38.494Z,98233.12
2019-04-10T02:39:19.082Z,98233.94
2019-04-10T02:41:34.654Z,98235.14
2019-04-10T02:44:03.455Z,98236.33
2019-04-10T02:46:31.451Z,98232.37
2019-04-10T02:49:00.208Z,98228.42
2019-04-10T02:51:27.970Z,98228.38
2019-04-10T02:53:56.082Z,98225.34
2019-04-10T02:56:24.951Z,98233.55
2019-04-10T02:58:51.733Z,98233.66
2019-04-10T03:01:19.843Z,98231.52
2019-04-10T03:03:46.585Z,98227.30
2019-04-10T03:06:13.504Z,98229.03
2019-04-10T03:08:54.962Z,98232.06
2019-04-10T03:11:12.209Z,98225.63
2019-04-10T03:13:38.230Z,98231.68
2019-04-10T03:16:05.579Z,98230.81
2019-04-10T03:18:32.692Z,98232.55
2019-04-10T03:20:59.649Z,98228.66
2019-04-10T03:23:26.725Z,98231.20
2019-04-10T03:25:53.357Z,98231.63
2019-04-10T03:28:19.976Z,98240.22
2019-04-10T03:30:48.761Z,98232.43
2019-04-10T03:33:47.300Z,98234.97
2019-04-10T03:36:13.612Z,98240.59
2019-04-10T03:38:53.943Z,98244.47
2019-04-10T03:41:08.913Z,98241.92
2019-04-10T03:43:36.112Z,98245.81
2019-04-10T03:46:03.352Z,98246.24
2019-04-10T03:48:31.314Z,98248.36
2019-04-10T03:50:58.723Z,98252.67
2019-04-10T03:53:26.413Z,98256.55
2019-04-10T03:55:53.668Z,98253.17
2019-04-10T03:58:20.970Z,98254.02
2019-04-10T04:00:47.695Z,98250.51
2019-04-10T04:03:14.421Z,98248.33
2019-04-10T04:05:42.490Z,98250.88
2019-04-10T04:08:09.470Z,98250.44
2019-04-10T04:10:37.090Z,98253.83
2019-04-10T04:13:05.968Z,98251.22
2019-04-10T04:15:33.750Z,98253.39
2019-04-10T04:18:02.414Z,98259.43
2019-04-10T04:20:30.713Z,98251.23
2019-04-10T04:22:57.557Z,98250.73
2019-04-10T04:25:26.561Z,98258.09
2019-04-10T04:27:53.876Z,98253.33
2019-04-10T04:30:20.839Z,98257.63
2019-04-10T04:32:48.364Z,98257.14
2019-04-10T04:35:15.431Z,98261.00
2019-04-10T04:37:44.290Z,98259.64
2019-04-10T04:40:17.412Z,98270.45
2019-04-10T04:43:02.257Z,98276.10
2019-04-10T04:45:30.005Z,98279.12
2019-04-10T04:47:57.628Z,98285.13
2019-04-10T04:50:24.863Z,98282.92
2019-04-10T04:52:52.229Z,98289.77
2019-04-10T04:55:19.769Z,98289.77
2019-04-10T04:57:47.150Z,98286.81
2019-04-10T05:00:15.529Z,98285.54
2019-04-10T05:02:44.784Z,98290.34
2019-04-10T05:05:11.915Z,98296.84
2019-04-10T05:07:39.708Z,98298.19
2019-04-10T05:10:07.193Z,98308.12
2019-04-10T05:12:34.165Z,98298.22
2019-04-10T05:15:02.607Z,98306.42
2019-04-10T05:17:30.871Z,98300.45
2019-04-10T05:19:58.705Z,98307.47
2019-04-10T05:22:26.471Z,98310.09
2019-04-10T05:24:57.213Z,98319.22
2019-04-10T05:27:29.591Z,98319.27
2019-04-10T05:30:09.268Z,98317.56
2019-04-10T05:32:39.983Z,98316.76
2019-04-10T05:35:12.795Z,98320.70
2019-04-10T05:37:48.129Z,98320.72
2019-04-10T05:40:20.165Z,98325.14
2019-04-10T05:42:49.152Z,98323.00
2019-04-10T05:45:17.037Z,98328.72
2019-04-10T05:47:44.464Z,98333.95
2019-04-10T05:50:13.061Z,98331.03
2019-04-10T05:52:40.481Z,98332.41
2019-04-10T05:55:08.537Z,98334.61
2019-04-10T05:57:35.425Z,98340.23
2019-04-10T06:00:04.664Z,98341.20
2019-04-10T06:02:32.105Z,98342.96
2019-04-10T06:04:59.970Z,98346.45
2019-04-10T06:07:49.358Z,98355.14
2019-04-10T06:10:24.570Z,98349.96
2019-04-10T06:12:56.542Z,98349.98
2019-04-10T06:15:26.522Z,98345.23
2019-04-10T06:18:04.976Z,98345.69
2019-04-10T06:20:36.129Z,98340.06
2019-04-10T06:23:09.474Z,98339.20
2019-04-10T06:25:52.396Z,98340.94
2019-04-10T06:28:31.027Z,98343.12
2019-04-10T06:31:06.236Z,98330.97
2019-04-10T06:33:36.104Z,98340.06
2019-04-10T06:36:05.356Z,98330.93
2019-04-10T06:38:35.769Z,98330.89
2019-04-10T06:41:04.152Z,98333.50
2019-04-10T06:43:33.080Z,98336.06
2019-04-10T06:46:00.044Z,98337.27
2019-04-10T06:48:34.112Z,98339.86
2019-04-10T06:51:02.047Z,98337.63
2019-04-10T06:53:29.030Z,98335.28
2019-04-10T06:55:56.535Z,98334.73
2019-04-10T06:58:23.646Z,98331.20
2019-04-10T07:00:53.222Z,98337.64
2019-04-10T07:03:19.098Z,98337.45
2019-04-10T07:06:06.274Z,98333.55
2019-04-10T07:08:27.467Z,98349.23
2019-04-10T07:11:02.011Z,98345.52
2019-04-10T07:13:23.805Z,98348.31
2019-04-10T07:15:54.397Z,98352.58
2019-04-10T07:18:20.675Z,98350.46
2019-04-10T07:20:48.969Z,98353.94
2019-04-10T07:23:23.311Z,98352.64
2019-04-10T07:25:45.790Z,98357.44
2019-04-10T07:28:13.720Z,98352.73
2019-04-10T07:30:40.717Z,98348.63
2019-04-10T07:33:07.669Z,98353.59
2019-04-10T07:35:35.769Z,98352.14
2019-04-10T07:38:03.099Z,98364.65
2019-04-10T07:40:33.871Z,98367.48
2019-04-10T07:42:58.797Z,98365.26
2019-04-10T07:45:27.203Z,98372.92
2019-04-10T07:47:55.895Z,98376.95
2019-04-10T07:50:22.763Z,98379.95
2019-04-10T07:52:49.987Z,98386.69
2019-04-10T07:55:16.965Z,98374.56
2019-04-10T07:57:53.216Z,98371.80
2019-04-10T08:00:20.196Z,98376.18
2019-04-10T08:02:49.181Z,98382.14
2019-04-10T08:05:16.645Z,98374.84
2019-04-10T08:07:43.463Z,98371.27
2019-04-10T08:10:11.988Z,98368.31
2019-04-10T08:12:47.336Z,98360.53
2019-04-10T08:15:09.151Z,98358.67
2019-04-10T08:17:41.849Z,98362.06
2019-04-10T08:20:15.504Z,98367.38
2019-04-10T08:22:47.579Z,98374.22
2019-04-10T08:25:20.315Z,98377.66
2019-04-10T08:27:52.342Z,98374.62
2019-04-10T08:30:50.402Z,98373.14
2019-04-10T08:33:19.636Z,98369.94
2019-04-10T08:35:57.658Z,98373.12
2019-04-10T08:38:29.973Z,98363.98
2019-04-10T08:41:05.185Z,98363.25
2019-04-10T08:43:35.435Z,98359.70
2019-04-10T08:46:03.507Z,98355.72
2019-04-10T08:48:31.512Z,98370.25
2019-04-10T08:50:58.882Z,98370.59
2019-04-10T08:53:27.219Z,98372.14
2019-04-10T08:55:54.976Z,98370.88
2019-04-10T08:58:22.874Z,98368.59
2019-04-10T09:00:51.462Z,98358.67
2019-04-10T09:03:19.028Z,98367.53
2019-04-10T09:05:46.954Z,98365.20
2019-04-10T09:08:15.106Z,98370.76
2019-04-10T09:10:42.772Z,98367.78
2019-04-10T09:13:10.431Z,98359.14
2019-04-10T09:15:38.122Z,98371.35
2019-04-10T09:18:06.143Z,98361.74
2019-04-10T09:20:33.147Z,98361.09
2019-04-10T09:23:19.973Z,98368.71
2019-04-10T09:25:28.536Z,98367.28
2019-04-10T09:27:55.243Z,98367.48
2019-04-10T09:30:22.206Z,98354.89
2019-04-10T09:32:48.998Z,98358.55
2019-04-10T09:35:16.374Z,98361.92
2019-04-10T09:37:43.533Z,98355.54
2019-04-10T09:40:11.981Z,98353.72
2019-04-10T09:42:39.599Z,98354.44
2019-04-10T09:45:09.331Z,98346.09
2019-04-10T09:47:36.279Z,98350.81
2019-04-10T09:50:05.677Z,98348.46
2019-04-10T09:52:37.601Z,98350.44
2019-04-10T09:55:07.539Z,98353.32
2019-04-10T09:57:37.049Z,98346.94
2019-04-10T10:00:07.763Z,98345.23
2019-04-10T10:02:36.117Z,98347.50
2019-04-10T10:05:06.372Z,98352.64
2019-04-10T10:07:36.869Z,98350.09
2019-04-10T10:10:08.799Z,98350.96
2019-04-10T10:12:45.007Z,98346.92
2019-04-10T10:15:15.287Z,98345.63
2019-04-10T10:17:47.417Z,98352.94
2019-04-10T10:20:17.491Z,98350.08
2019-04-10T10:22:49.434Z,98358.11
2019-04-10T10:25:23.487Z,98349.58
2019-04-10T10:27:52.353Z,98347.66
2019-04-10T10:30:23.655Z,98338.25
2019-04-10T10:32:53.442Z,98331.68
2019-04-10T10:35:23.133Z,98335.71
2019-04-10T10:37:54.727Z,98338.95
2019-04-10T10:40:23.836Z,98332.24
2019-04-10T10:42:56.146Z,98327.61
2019-04-10T10:45:27.344Z,98337.69
2019-04-10T10:48:01.641Z,98327.50
2019-04-10T10:50:34.521Z,98336.77
2019-04-10T10:53:06.178Z,98336.02
2019-04-10T10:55:37.733Z,98324.06
2019-04-10T10:58:08.106Z,98323.55
2019-04-10T11:00:41.132Z,98333.85
2019-04-10T11:03:14.481Z,98323.19
2019-04-10T11:05:48.586Z,98327.04
2019-04-10T11:08:19.150Z,98322.98
2019-04-10T11:10:53.480Z,98322.91
2019-04-10T11:13:19.106Z,98329.09
2019-04-10T11:15:48.489Z,98319.62
2019-04-10T11:18:19.677Z,98315.14
2019-04-10T11:20:48.496Z,98320.66
2019-04-10T11:23:19.645Z,98318.59
2019-04-10T11:25:50.360Z,98315.59
2019-04-10T11:28:18.710Z,98309.73
2019-04-10T11:30:47.432Z,98313.48
2019-04-10T11:33:17.634Z,98318.78
2019-04-10T11:35:45.895Z,98311.05
2019-04-10T11:38:13.532Z,98311.04
2019-04-10T11:40:45.742Z,98315.54
2019-04-10T11:43:13.565Z,98312.96
2019-04-10T11:45:45.455Z,98303.63
2019-04-10T11:48:10.293Z,98321.99
2019-04-10T11:50:38.460Z,98317.86
2019-04-10T11:53:06.952Z,98319.55
2019-04-10T11:55:43.183Z,98320.20
2019-04-10T11:58:03.073Z,98315.91
2019-04-10T12:00:45.426Z,98313.34
2019-04-10T12:03:08.724Z,98313.83
2019-04-10T12:05:36.632Z,98325.55
2019-04-10T12:08:27.956Z,98324.20
2019-04-10T12:13:01.929Z,98316.84
2019-04-10T12:15:28.914Z,98317.42
2019-04-10T12:17:55.564Z,98315.09
2019-04-10T12:20:22.208Z,98320.80
2019-04-10T12:22:48.980Z,98316.50
2019-04-10T12:25:16.116Z,98311.94
2019-04-10T12:27:45.335Z,98312.33
2019-04-10T12:30:13.236Z,98312.73
2019-04-10T12:32:41.054Z,98308.34
2019-04-10T12:35:10.929Z,98313.69
2019-04-10T12:37:39.138Z,98313.80
2019-04-10T12:40:07.697Z,98314.32
2019-04-10T12:46:30.315Z,98310.63
2019-04-10T12:48:59.748Z,98311.31
2019-04-10T12:51:26.033Z,98308.87
2019-04-10T12:53:55.929Z,98305.02
2019-04-10T12:56:24.034Z,98305.11
2019-04-10T12:58:53.041Z,98323.08
2019-04-10T13:01:20.528Z,98319.77
2019-04-10T13:03:47.797Z,98306.59
2019-04-10T13:06:16.294Z,98310.41
2019-04-10T13:08:57.116Z,98306.12
2019-04-10T13:11:12.086Z,98312.30
2019-04-10T13:13:39.066Z,98302.18
2019-04-10T13:16:05.882Z,98310.84
2019-04-10T13:18:32.612Z,98305.33
2019-04-10T13:20:59.693Z,98311.78
2019-04-10T13:23:26.693Z,98312.55
2019-04-10T13:25:59.806Z,98310.03
2019-04-10T13:28:21.875Z,98302.64
2019-04-10T13:30:54.910Z,98301.90
2019-04-10T13:33:22.687Z,98306.56
2019-04-10T13:35:53.784Z,98301.89
2019-04-10T13:38:30.169Z,98305.48
2019-04-10T13:40:59.820Z,98304.03
2019-04-10T13:43:31.248Z,98308.12
2019-04-10T13:46:02.606Z,98307.75
2019-04-10T13:48:31.447Z,98304.99
2019-04-10T13:51:03.365Z,98302.77
2019-04-10T13:53:35.280Z,98312.05
2019-04-10T13:56:06.606Z,98304.03
2019-04-10T13:58:35.183Z,98313.18
2019-04-10T14:01:09.611Z,98321.97
2019-04-10T14:03:42.860Z,98321.20
2019-04-10T14:06:15.083Z,98321.30
2019-04-10T14:09:04.511Z,98317.11
2019-04-10T14:11:13.192Z,98320.01
2019-04-10T14:13:42.143Z,98323.73
2019-04-10T14:16:09.328Z,98321.75
2019-04-10T14:18:39.047Z,98316.28
2019-04-10T14:21:11.201Z,98321.19
2019-04-10T14:23:35.440Z,98328.80
2019-04-10T14:26:42.083Z,98326.78
2019-04-10T14:29:05.948Z,98323.13
2019-04-10T14:31:38.590Z,98325.86
2019-04-10T14:34:06.609Z,98325.06
2019-04-10T14:36:33.938Z,98332.41
2019-04-10T14:39:12.118Z,98327.70
2019-04-10T14:41:33.857Z,98335.97
2019-04-10T14:44:00.567Z,98333.16
2019-04-10T14:46:28.334Z,98338.04
2019-04-10T14:48:58.317Z,98328.80
2019-04-10T14:51:25.267Z,98333.20
2019-04-10T14:53:56.099Z,98343.46
2019-04-10T14:56:26.853Z,98334.66
2019-04-10T14:58:54.875Z,98339.91
2019-04-10T15:01:23.980Z,98338.35
2019-04-10T15:03:51.354Z,98340.89
2019-04-10T15:06:21.942Z,98344.11
2019-04-10T15:08:50.303Z,98340.23
2019-04-10T15:11:20.473Z,98340.68
2019-04-10T15:13:48.725Z,98344.63
2019-04-10T15:16:16.688Z,98349.84
2019-04-10T15:18:43.969Z,98349.43
2019-04-10T15:21:12.394Z,98350.08
2019-04-10T15:23:39.401Z,98348.28
2019-04-10T15:26:06.336Z,98344.47
2019-04-10T15:28:36.055Z,98352.92
2019-04-10T15:31:04.610Z,98348.13
2019-04-10T15:33:32.987Z,98343.79
2019-04-10T15:35:59.937Z,98349.89
2019-04-10T15:38:27.104Z,98344.77
2019-04-10T15:40:56.692Z,98351.20
2019-04-10T15:43:26.134Z,98355.88
2019-04-10T15:45:52.772Z,98348.14
2019-04-10T15:48:20.869Z,98351.16
2019-04-10T15:50:49.799Z,98357.16
2019-04-10T15:53:16.497Z,98355.61
2019-04-10T15:55:43.331Z,98356.02
2019-04-10T15:58:10.795Z,98358.86
2019-04-10T16:00:38.188Z,98366.34
2019-04-10T16:03:05.047Z,98358.73
2019-04-10T16:05:31.902Z,98364.55
2019-04-10T16:07:58.739Z,98367.30
2019-04-10T16:10:46.282Z,98365.16
2019-04-10T16:13:32.567Z,98368.36
2019-04-10T16:16:21.255Z,98369.47
2019-04-10T16:18:49.129Z,98371.80
2019-04-10T16:21:16.166Z,98371.14
2019-04-10T16:23:47.782Z,98378.48
2019-04-10T16:26:15.212Z,98378.03
2019-04-10T16:28:43.617Z,98379.34
2019-04-10T16:31:10.936Z,98384.37
2019-04-10T16:33:37.604Z,98378.30
2019-04-10T16:36:05.256Z,98380.69
2019-04-10T16:38:32.983Z,98383.73
2019-04-10T16:41:00.506Z,98379.73
2019-04-10T16:43:28.509Z,98383.61
2019-04-10T16:45:55.273Z,98387.59
2019-04-10T16:48:28.244Z,98389.45
2019-04-10T16:50:56.102Z,98382.79
2019-04-10T16:53:23.134Z,98393.77
2019-04-10T16:55:51.060Z,98391.70
2019-04-10T16:58:18.746Z,98396.94
2019-04-10T17:00:47.351Z,98394.91
2019-04-10T17:03:14.224Z,98401.17
2019-04-10T17:05:41.879Z,98406.20
2019-04-10T17:08:09.775Z,98409.94
2019-04-10T17:10:38.691Z,98415.72
2019-04-10T17:13:07.259Z,98411.85
2019-04-10T17:15:34.355Z,98419.97
2019-04-10T17:18:03.052Z,98412.95
2019-04-10T17:20:34.323Z,98421.81
2019-04-10T17:23:00.984Z,98426.98
2019-04-10T17:25:30.410Z,98420.66
2019-04-10T17:28:01.838Z,98433.08
2019-04-10T17:30:29.507Z,98429.57
2019-04-10T17:32:56.585Z,98429.78
2019-04-10T17:35:23.399Z,98432.88
2019-04-10T17:37:50.778Z,98429.06
2019-04-10T17:40:29.791Z,98429.06
2019-04-10T17:42:58.860Z,98436.52
2019-04-10T17:45:32.669Z,98440.92
2019-04-10T17:48:01.156Z,98441.02
2019-04-10T17:50:28.020Z,98445.82
2019-04-10T17:52:54.972Z,98446.31
2019-04-10T17:55:23.236Z,98444.23
2019-04-10T17:57:52.661Z,98450.03
2019-04-10T18:00:31.283Z,98455.70
2019-04-10T18:03:01.231Z,98456.13
2019-04-10T18:05:28.770Z,98454.05
2019-04-10T18:07:56.566Z,98460.74
2019-04-10T18:10:39.567Z,98466.83
2019-04-10T18:13:02.985Z,98467.80
2019-04-10T18:15:32.992Z,98471.80
2019-04-10T18:17:59.924Z,98474.88
2019-04-10T18:20:26.620Z,98488.06
2019-04-10T18:22:56.272Z,98487.71
2019-04-10T18:25:23.355Z,98491.29
2019-04-10T18:27:52.378Z,98492.27
2019-04-10T18:30:19.561Z,98491.01
2019-04-10T18:32:47.630Z,98503.20
2019-04-10T18:35:14.564Z,98491.91
2019-04-10T18:37:41.762Z,98504.96
2019-04-10T18:40:08.524Z,98510.20
2019-04-10T18:42:35.830Z,98514.53
2019-04-10T18:45:04.343Z,98514.11
2019-04-10T18:47:36.423Z,98521.97
2019-04-10T18:50:02.939Z,98518.48
2019-04-10T18:52:29.996Z,98525.02
2019-04-10T18:54:57.049Z,98526.34
2019-04-10T18:57:24.584Z,98532.89
2019-04-10T19:00:12.321Z,98532.89
2019-04-10T19:02:57.395Z,98534.22
2019-04-10T19:05:34.783Z,98537.27
2019-04-10T19:08:03.076Z,98540.73
2019-04-10T19:10:30.672Z,98545.07
2019-04-10T19:12:57.571Z,98543.78
2019-04-10T19:15:27.070Z,98542.92
2019-04-10T19:17:55.177Z,98554.69
2019-04-10T19:20:23.298Z,98557.73
2019-04-10T19:22:51.051Z,98563.84
2019-04-10T19:25:20.991Z,98556.47
2019-04-10T19:27:48.601Z,98566.06
2019-04-10T19:30:33.075Z,98567.77
2019-04-10T19:33:01.692Z,98568.19
2019-04-10T19:35:35.343Z,98571.05
2019-04-10T19:38:03.166Z,98574.45
2019-04-10T19:40:38.682Z,98575.70
2019-04-10T19:43:06.056Z,98575.67
2019-04-10T19:45:34.179Z,98568.69
2019-04-10T19:48:01.142Z,98572.54
2019-04-10T19:50:29.684Z,98573.79
2019-04-10T19:52:57.493Z,98573.75
2019-04-10T19:55:24.513Z,98573.68
2019-04-10T19:57:51.423Z,98575.67
2019-04-10T20:00:22.140Z,98582.45
2019-04-10T20:02:51.094Z,98587.08
2019-04-10T20:05:23.411Z,98591.75
2019-04-10T20:07:51.385Z,98581.85
2019-04-10T20:10:19.188Z,98586.14
2019-04-10T20:12:45.793Z,98586.39
2019-04-10T20:15:14.105Z,98588.05
2019-04-10T20:17:40.954Z,98586.47
2019-04-10T20:20:08.884Z,98592.58
2019-04-10T20:22:36.902Z,98596.93
2019-04-10T20:25:03.942Z,98600.84
2019-04-10T20:27:30.703Z,98604.70
2019-04-10T20:29:57.614Z,98606.44
2019-04-10T20:32:24.174Z,98605.50
2019-04-10T20:34:51.955Z,98607.55
2019-04-10T20:37:18.889Z,98613.97
2019-04-10T20:39:47.939Z,98612.60
2019-04-10T20:42:16.206Z,98610.84
2019-04-10T20:44:43.144Z,98614.66
2019-04-10T20:47:10.798Z,98617.65
2019-04-10T20:49:38.438Z,98624.46
2019-04-10T20:52:08.274Z,98628.52
2019-04-10T20:54:35.235Z,98634.00
2019-04-10T20:57:01.870Z,98634.73
2019-04-10T20:59:30.492Z,98642.39
2019-04-10T21:01:57.819Z,98642.81
2019-04-10T21:04:25.432Z,98645.88
2019-04-10T21:06:52.528Z,98648.64
2019-04-10T21:09:19.195Z,98642.97
2019-04-10T21:11:58.064Z,98642.21
2019-04-10T21:14:16.115Z,98647.92
2019-04-10T21:16:44.214Z,98650.30
2019-04-10T21:19:14.614Z,98651.23
2019-04-10T21:21:41.449Z,98649.31
2019-04-10T21:24:09.258Z,98643.52
2019-04-10T21:26:38.729Z,98649.70
2019-04-10T21:29:09.465Z,98652.87
2019-04-10T21:31:50.553Z,98653.38
2019-04-10T21:34:28.831Z,98651.72
2019-04-10T21:36:57.621Z,98652.67
2019-04-10T21:39:25.662Z,98657.02
2019-04-10T21:41:53.532Z,98657.06
2019-04-10T21:44:20.772Z,98660.96
2019-04-10T21:46:48.616Z,98661.42
2019-04-10T21:49:15.601Z,98657.58
2019-04-10T21:51:42.834Z,98657.16
2019-04-10T21:54:09.827Z,98661.48
2019-04-10T21:56:37.285Z,98658.50
2019-04-10T21:59:05.467Z,98653.33
2019-04-10T22:01:32.526Z,98655.05
2019-04-10T22:04:00.539Z,98656.28
2019-04-10T22:06:59.306Z,98652.38
2019-04-10T22:09:53.094Z,98660.55
2019-04-10T22:12:30.418Z,98666.61
2019-04-10T22:14:52.526Z,98660.47
2019-04-10T22:17:19.262Z,98665.66
2019-04-10T22:19:47.378Z,98668.69
2019-04-10T22:22:18.127Z,98669.48
2019-04-10T22:24:50.577Z,98674.22
2019-04-10T22:27:19.016Z,98675.98
2019-04-10T22:29:46.910Z,98674.67
2019-04-10T22:32:14.650Z,98678.50
2019-04-10T22:34:42.068Z,98677.69
2019-04-10T22:37:09.909Z,98681.59
2019-04-10T22:39:39.617Z,98678.91
2019-04-10T22:42:07.515Z,98677.53
2019-04-10T22:44:41.991Z,98685.73
2019-04-10T22:47:05.095Z,98689.21
2019-04-10T22:49:32.823Z,98687.47
2019-04-10T22:52:00.611Z,98687.83
2019-04-10T22:54:28.462Z,98683.50
2019-04-10T22:56:56.540Z,98691.36
2019-04-10T22:59:24.236Z,98692.64
2019-04-10T23:02:00.446Z,98694.30
2019-04-10T23:04:20.158Z,98697.30
2019-04-10T23:06:47.236Z,98698.62
2019-04-10T23:09:13.921Z,98697.67
2019-04-10T23:11:44.653Z,98699.41
2019-04-10T23:14:10.502Z,98697.27
2019-04-10T23:16:37.948Z,98702.35
2019-04-10T23:19:05.690Z,98704.05
2019-04-10T23:21:32.503Z,98702.26
2019-04-10T23:24:01.672Z,98703.89
2019-04-10T23:26:29.136Z,98706.92
2019-04-10T23:28:56.039Z,98708.69
2019-04-10T23:31:26.091Z,98710.81
2019-04-10T23:33:52.882Z,98711.72
2019-04-10T23:36:20.221Z,98706.02
2019-04-10T23:38:47.982Z,98705.08
2019-04-10T23:41:15.674Z,98705.92
2019-04-10T23:43:46.019Z,98714.06
2019-04-10T23:46:13.056Z,98708.86
2019-04-10T23:48:39.664Z,98717.89
2019-04-10T23:51:07.069Z,98720.52
2019-04-10T23:53:37.132Z,98722.25
2019-04-10T23:56:04.291Z,98720.48
2019-04-10T23:58:31.810Z,98716.15
